createdAt,value
2019-02-27T00:00:04.591Z,99.90
2019-02-27T00:02:33.888Z,99.90
2019-02-27T00:05:03.034Z,99.90
2019-02-27T00:07:32.296Z,99.90
2019-02-27T00:10:05.935Z,99.90
2019-02-27T00:12:32.429Z,99.90
2019-02-27T00:15:02.106Z,99.90
2019-02-27T00:17:32.634Z,99.90
2019-02-27T00:20:04.294Z,99.90
2019-02-27T00:22:32.793Z,99.90
2019-02-27T00:25:03.461Z,99.90
2019-02-27T00:27:32.986Z,99.90
2019-02-27T00:30:05.035Z,99.90
2019-02-27T00:32:33.241Z,99.90
2019-02-27T00:35:06.479Z,99.90
2019-02-27T00:37:33.424Z,99.90
2019-02-27T00:40:05.315Z,99.90
2019-02-27T00:42:33.979Z,99.90
2019-02-27T00:45:06.808Z,99.90
2019-02-27T00:47:34.491Z,99.90
2019-02-27T00:50:06.562Z,99.90
2019-02-27T00:52:34.696Z,99.90
2019-02-27T00:55:04.655Z,99.90
2019-02-27T00:57:34.572Z,99.90
2019-02-27T01:00:06.288Z,99.90
2019-02-27T01:02:34.801Z,99.90
2019-02-27T01:05:06.192Z,99.90
2019-02-27T01:07:35.201Z,99.90
2019-02-27T01:10:05.242Z,99.90
2019-02-27T01:12:34.530Z,99.90
2019-02-27T01:15:03.864Z,99.90
2019-02-27T01:17:33.030Z,99.90
2019-02-27T01:20:02.517Z,99.90
2019-02-27T01:22:31.679Z,99.90
2019-02-27T01:25:00.913Z,99.90
2019-02-27T01:27:30.162Z,99.90
2019-02-27T01:29:59.405Z,99.90
2019-02-27T01:32:28.900Z,99.90
2019-02-27T01:34:59.546Z,99.90
2019-02-27T01:37:31.283Z,99.90
2019-02-27T01:39:59.660Z,99.90
2019-02-27T01:42:31.987Z,99.90
2019-02-27T01:44:59.867Z,99.90
2019-02-27T01:47:29.101Z,99.90
2019-02-27T01:49:58.261Z,99.90
2019-02-27T01:52:27.401Z,99.90
2019-02-27T01:54:56.582Z,99.90
2019-02-27T01:57:25.784Z,99.90
2019-02-27T01:59:54.957Z,99.90
2019-02-27T02:02:24.124Z,99.90
2019-02-27T02:04:53.878Z,99.90
2019-02-27T02:07:23.143Z,99.90
2019-02-27T02:09:55.098Z,99.90
2019-02-27T02:12:27.217Z,99.90
2019-02-27T02:15:11.058Z,99.90
2019-02-27T02:18:07.778Z,99.90
2019-02-27T02:21:08.397Z,99.90
2019-02-27T02:24:25.536Z,99.90
2019-02-27T02:27:08.250Z,99.90
2019-02-27T02:30:15.077Z,99.90
2019-02-27T02:33:00.469Z,99.90
2019-02-27T02:36:26.888Z,99.90
2019-02-27T02:39:27.893Z,99.90
2019-02-27T02:42:31.171Z,99.90
2019-02-27T02:45:33.902Z,99.90
2019-02-27T02:48:37.383Z,99.90
2019-02-27T02:51:53.639Z,99.90
2019-02-27T02:55:25.053Z,99.90
2019-02-27T02:58:20.630Z,99.90
2019-02-27T03:01:04.441Z,99.90
2019-02-27T03:04:26.508Z,99.90
2019-02-27T03:07:44.482Z,99.90
2019-02-27T03:10:49.394Z,99.90
2019-02-27T03:13:54.313Z,99.90
2019-02-27T03:16:42.246Z,99.90
2019-02-27T03:19:41.429Z,99.90
2019-02-27T03:22:43.050Z,99.90
2019-02-27T03:26:08.475Z,99.90
2019-02-27T03:29:16.893Z,99.90
2019-02-27T03:32:00.072Z,99.90
2019-02-27T03:35:30.052Z,99.90
2019-02-27T03:38:49.822Z,99.90
2019-02-27T03:42:00.249Z,99.90
2019-02-27T03:45:13.897Z,99.90
2019-02-27T03:48:33.285Z,99.90
2019-02-27T03:52:04.861Z,99.90
2019-02-27T03:54:58.082Z,99.90
2019-02-27T03:57:54.910Z,99.90
2019-02-27T04:01:01.179Z,99.90
2019-02-27T04:03:40.676Z,99.90
2019-02-27T04:06:43.678Z,99.90
2019-02-27T04:09:18.563Z,99.90
2019-02-27T04:11:44.026Z,99.90
2019-02-27T04:14:30.029Z,99.90
2019-02-27T04:17:05.484Z,99.90
2019-02-27T04:19:30.382Z,99.90
2019-02-27T04:22:01.142Z,99.90
2019-02-27T04:24:30.524Z,99.90
2019-02-27T04:26:59.780Z,99.90
2019-02-27T04:29:29.023Z,99.90
2019-02-27T04:31:58.244Z,99.90
2019-02-27T04:34:27.462Z,99.90
2019-02-27T04:36:56.693Z,99.90
2019-02-27T04:39:25.917Z,99.90
2019-02-27T04:41:55.172Z,99.90
2019-02-27T04:44:24.386Z,99.90
2019-02-27T04:46:55.071Z,99.90
2019-02-27T04:49:24.569Z,99.90
2019-02-27T04:51:53.749Z,99.90
2019-02-27T04:54:22.930Z,99.90
2019-02-27T04:56:52.113Z,99.90
2019-02-27T04:59:21.334Z,99.90
2019-02-27T05:01:50.578Z,99.90
2019-02-27T05:04:19.816Z,99.90
2019-02-27T05:06:49.092Z,99.90
2019-02-27T05:09:18.326Z,99.90
2019-02-27T05:11:48.332Z,99.90
2019-02-27T05:14:17.678Z,99.90
2019-02-27T05:16:47.735Z,99.90
2019-02-27T05:19:17.224Z,99.90
2019-02-27T05:21:46.495Z,99.90
2019-02-27T05:24:15.781Z,99.90
2019-02-27T05:26:44.994Z,99.90
2019-02-27T05:29:15.795Z,99.90
2019-02-27T05:31:45.118Z,99.90
2019-02-27T05:34:14.504Z,99.90
2019-02-27T05:36:43.722Z,99.90
2019-02-27T05:39:14.948Z,99.90
2019-02-27T05:41:43.872Z,99.90
2019-02-27T05:44:13.121Z,99.90
2019-02-27T05:46:42.325Z,99.90
2019-02-27T05:49:11.521Z,99.90
2019-02-27T05:51:40.670Z,99.90
2019-02-27T05:54:09.930Z,99.90
2019-02-27T05:56:39.082Z,99.90
2019-02-27T05:59:08.321Z,99.90
2019-02-27T06:01:38.275Z,99.90
2019-02-27T06:04:08.073Z,99.90
2019-02-27T06:06:37.339Z,99.90
2019-02-27T06:09:10.076Z,99.90
2019-02-27T06:11:38.428Z,99.90
2019-02-27T06:14:07.605Z,99.90
2019-02-27T06:16:37.624Z,99.90
2019-02-27T06:19:07.711Z,99.90
2019-02-27T06:21:38.818Z,99.90
2019-02-27T06:24:11.632Z,99.90
2019-02-27T06:26:38.896Z,99.90
2019-02-27T06:29:08.164Z,99.90
2019-02-27T06:31:39.422Z,99.90
2019-02-27T06:34:08.369Z,99.90
2019-02-27T06:36:41.869Z,99.90
2019-02-27T06:39:08.792Z,99.90
2019-02-27T06:41:39.866Z,99.90
2019-02-27T06:44:09.032Z,99.90
2019-02-27T06:46:38.185Z,99.90
2019-02-27T06:49:07.428Z,99.90
2019-02-27T06:51:36.654Z,99.90
2019-02-27T06:54:05.833Z,99.90
2019-02-27T06:56:35.066Z,99.90
2019-02-27T06:59:04.229Z,99.90
2019-02-27T07:01:33.398Z,99.90
2019-02-27T07:04:04.786Z,99.90
2019-02-27T07:06:33.502Z,99.90
2019-02-27T07:09:03.068Z,99.90
2019-02-27T07:11:32.229Z,99.90
2019-02-27T07:14:01.394Z,99.90
2019-02-27T07:16:30.620Z,99.90
2019-02-27T07:18:59.794Z,99.90
2019-02-27T07:21:32.427Z,99.90
2019-02-27T07:23:59.994Z,99.90
2019-02-27T07:26:29.257Z,99.90
2019-02-27T07:28:58.482Z,99.90
2019-02-27T07:31:27.647Z,99.90
2019-02-27T07:33:56.900Z,99.90
2019-02-27T07:36:26.139Z,99.90
2019-02-27T07:38:57.529Z,99.90
2019-02-27T07:41:26.274Z,99.90
2019-02-27T07:43:55.531Z,99.90
2019-02-27T07:46:24.758Z,99.90
2019-02-27T07:48:56.565Z,99.90
2019-02-27T07:51:25.009Z,99.90
2019-02-27T07:53:54.549Z,99.90
2019-02-27T07:56:23.672Z,99.90
2019-02-27T07:58:52.842Z,99.90
2019-02-27T08:01:23.567Z,99.90
2019-02-27T08:03:53.069Z,99.90
2019-02-27T08:06:23.599Z,99.90
2019-02-27T08:08:57.001Z,99.90
2019-02-27T08:11:23.877Z,99.90
2019-02-27T08:13:53.109Z,99.90
2019-02-27T08:16:22.696Z,99.90
2019-02-27T08:18:51.980Z,99.90
2019-02-27T08:21:21.229Z,99.90
2019-02-27T08:23:50.453Z,99.90
2019-02-27T08:26:19.721Z,99.90
2019-02-27T08:28:48.902Z,99.90
2019-02-27T08:31:18.164Z,99.90
2019-02-27T08:33:47.386Z,99.90
2019-02-27T08:36:16.656Z,99.90
2019-02-27T08:38:46.289Z,99.90
2019-02-27T08:41:15.582Z,99.90
2019-02-27T08:43:44.838Z,99.90
2019-02-27T08:46:14.086Z,99.90
2019-02-27T08:48:43.355Z,99.90
2019-02-27T08:51:12.609Z,99.90
2019-02-27T08:53:41.840Z,99.90
2019-02-27T08:56:12.376Z,99.90
2019-02-27T08:58:42.207Z,99.90
2019-02-27T09:01:12.028Z,99.90
2019-02-27T09:03:41.274Z,99.90
2019-02-27T09:06:10.561Z,99.60
2019-02-27T09:08:43.180Z,99.90
2019-02-27T09:11:10.721Z,99.90
2019-02-27T09:13:39.946Z,99.90
2019-02-27T09:16:09.178Z,99.60
2019-02-27T09:18:38.407Z,99.40
2019-02-27T09:21:07.578Z,99.00
2019-02-27T09:23:36.845Z,98.50
2019-02-27T09:26:06.141Z,97.50
2019-02-27T09:28:35.375Z,90.90
2019-02-27T09:31:04.672Z,91.10
2019-02-27T09:33:38.669Z,84.00
2019-02-27T09:36:23.945Z,83.70
2019-02-27T09:38:57.411Z,78.00
2019-02-27T09:41:24.252Z,82.80
2019-02-27T09:43:53.431Z,78.00
2019-02-27T09:46:22.665Z,80.00
2019-02-27T09:48:51.946Z,80.30
2019-02-27T09:51:22.202Z,79.10
2019-02-27T09:53:52.113Z,77.60
2019-02-27T09:56:21.353Z,77.10
2019-02-27T09:58:50.618Z,77.20
2019-02-27T10:01:19.939Z,76.60
2019-02-27T10:03:51.947Z,74.80
2019-02-27T10:06:20.167Z,70.70
2019-02-27T10:08:49.429Z,72.30
2019-02-27T10:11:19.980Z,71.80
2019-02-27T10:13:49.597Z,71.80
2019-02-27T10:16:18.838Z,72.20
2019-02-27T10:18:48.071Z,66.90
2019-02-27T10:21:17.267Z,66.40
2019-02-27T10:23:46.732Z,66.60
2019-02-27T10:26:16.575Z,66.10
2019-02-27T10:28:46.978Z,66.10
2019-02-27T10:31:16.268Z,69.10
2019-02-27T10:33:45.517Z,69.80
2019-02-27T10:36:16.201Z,70.30
2019-02-27T10:38:45.683Z,69.10
2019-02-27T10:41:14.953Z,67.10
2019-02-27T10:43:44.200Z,68.30
2019-02-27T10:46:13.466Z,68.80
2019-02-27T10:48:42.633Z,68.40
2019-02-27T10:51:11.919Z,67.40
2019-02-27T10:53:41.179Z,66.60
2019-02-27T10:56:10.445Z,67.00
2019-02-27T10:58:39.735Z,66.20
2019-02-27T11:01:08.903Z,65.50
2019-02-27T11:03:38.101Z,68.90
2019-02-27T11:06:07.328Z,69.10
2019-02-27T11:08:36.529Z,69.50
2019-02-27T11:11:05.713Z,72.20
2019-02-27T11:13:35.102Z,74.80
2019-02-27T11:16:04.365Z,73.10
2019-02-27T11:18:33.665Z,76.40
2019-02-27T11:21:02.895Z,76.80
2019-02-27T11:23:32.161Z,76.40
2019-02-27T11:26:01.404Z,76.30
2019-02-27T11:28:30.665Z,75.90
2019-02-27T11:30:59.861Z,76.20
2019-02-27T11:33:32.521Z,76.60
2019-02-27T11:35:59.984Z,76.50
2019-02-27T11:38:29.235Z,77.20
2019-02-27T11:40:58.537Z,77.30
2019-02-27T11:43:27.859Z,77.10
2019-02-27T11:45:58.036Z,76.50
2019-02-27T11:48:27.931Z,75.80
2019-02-27T11:50:57.193Z,75.00
2019-02-27T11:53:26.449Z,73.50
2019-02-27T11:55:55.606Z,72.30
2019-02-27T11:58:24.902Z,71.00
2019-02-27T12:00:54.149Z,70.70
2019-02-27T12:03:23.449Z,70.70
2019-02-27T12:05:52.628Z,70.50
2019-02-27T12:08:22.395Z,68.10
2019-02-27T12:10:52.754Z,67.90
2019-02-27T12:13:22.028Z,67.30
2019-02-27T12:15:51.296Z,64.70
2019-02-27T12:18:20.559Z,65.30
2019-02-27T12:20:53.255Z,65.10
2019-02-27T12:23:20.787Z,65.40
2019-02-27T12:25:50.009Z,65.20
2019-02-27T12:28:19.381Z,65.30
2019-02-27T12:30:48.606Z,65.70
2019-02-27T12:33:18.092Z,65.90
2019-02-27T12:35:47.315Z,65.00
2019-02-27T12:38:16.610Z,66.00
2019-02-27T12:40:45.862Z,63.60
2019-02-27T12:43:18.347Z,62.80
2019-02-27T12:45:46.121Z,62.20
2019-02-27T12:48:19.083Z,61.70
2019-02-27T12:50:48.289Z,61.30
2019-02-27T12:53:20.679Z,60.10
2019-02-27T12:55:48.353Z,60.80
2019-02-27T12:58:17.646Z,60.10
2019-02-27T13:00:47.038Z,61.00
2019-02-27T13:03:16.277Z,60.30
2019-02-27T13:05:45.445Z,60.00
2019-02-27T13:08:16.415Z,59.20
2019-02-27T13:10:45.668Z,58.60
2019-02-27T13:13:14.918Z,58.10
2019-02-27T13:15:44.107Z,58.50
2019-02-27T13:18:13.309Z,59.10
2019-02-27T13:20:43.030Z,58.50
2019-02-27T13:23:13.436Z,58.10
2019-02-27T13:25:42.625Z,58.00
2019-02-27T13:28:14.591Z,58.20
2019-02-27T13:30:42.924Z,57.00
2019-02-27T13:33:12.175Z,56.80
2019-02-27T13:35:41.418Z,56.10
2019-02-27T13:38:10.569Z,55.00
2019-02-27T13:40:39.854Z,55.40
2019-02-27T13:43:09.081Z,55.70
2019-02-27T13:45:38.456Z,54.80
2019-02-27T13:48:07.630Z,54.40
2019-02-27T13:50:36.801Z,54.30
2019-02-27T13:53:06.093Z,54.30
2019-02-27T13:55:35.354Z,54.20
2019-02-27T13:58:04.546Z,52.90
2019-02-27T14:00:33.825Z,53.50
2019-02-27T14:03:03.110Z,53.50
2019-02-27T14:05:34.829Z,52.80
2019-02-27T14:08:03.410Z,51.40
2019-02-27T14:10:32.789Z,52.00
2019-02-27T14:13:02.002Z,52.30
2019-02-27T14:15:31.829Z,52.80
2019-02-27T14:18:01.257Z,53.10
2019-02-27T14:20:30.504Z,53.10
2019-02-27T14:22:59.736Z,51.70
2019-02-27T14:25:32.643Z,51.40
2019-02-27T14:28:00.014Z,50.20
2019-02-27T14:30:38.281Z,51.20
2019-02-27T14:33:07.574Z,51.60
2019-02-27T14:35:36.752Z,51.20
2019-02-27T14:38:06.024Z,50.90
2019-02-27T14:40:39.554Z,51.60
2019-02-27T14:43:06.917Z,50.90
2019-02-27T14:45:39.594Z,50.90
2019-02-27T14:48:07.080Z,50.20
2019-02-27T14:50:36.359Z,50.30
2019-02-27T14:53:05.624Z,50.30
2019-02-27T14:55:36.158Z,50.40
2019-02-27T14:58:05.785Z,50.00
2019-02-27T15:00:39.982Z,50.00
2019-02-27T15:03:06.252Z,50.30
2019-02-27T15:05:36.750Z,48.90
2019-02-27T15:08:06.512Z,48.50
2019-02-27T15:10:40.306Z,49.30
2019-02-27T15:13:06.845Z,49.60
2019-02-27T15:15:36.021Z,50.10
2019-02-27T15:18:05.653Z,49.20
2019-02-27T15:20:37.655Z,49.90
2019-02-27T15:23:05.985Z,50.60
2019-02-27T15:25:35.253Z,50.50
2019-02-27T15:28:04.514Z,50.50
2019-02-27T15:30:33.764Z,50.10
2019-02-27T15:33:04.990Z,50.40
2019-02-27T15:35:33.963Z,49.90
2019-02-27T15:38:03.244Z,50.10
2019-02-27T15:40:32.506Z,50.60
2019-02-27T15:43:11.286Z,50.70
2019-02-27T15:45:35.866Z,49.60
2019-02-27T15:48:06.896Z,50.20
2019-02-27T15:50:36.115Z,50.30
2019-02-27T15:53:05.673Z,50.60
2019-02-27T15:55:35.421Z,50.90
2019-02-27T15:58:05.471Z,51.10
2019-02-27T16:00:36.965Z,51.10
2019-02-27T16:03:10.950Z,51.20
2019-02-27T16:05:37.226Z,51.00
2019-02-27T16:08:06.588Z,50.80
2019-02-27T16:10:35.838Z,50.80
2019-02-27T16:13:05.111Z,50.70
2019-02-27T16:15:34.332Z,49.90
2019-02-27T16:18:04.640Z,50.30
2019-02-27T16:20:34.569Z,50.80
2019-02-27T16:23:05.111Z,52.70
2019-02-27T16:25:34.629Z,52.80
2019-02-27T16:28:03.898Z,52.40
2019-02-27T16:30:33.347Z,52.30
2019-02-27T16:33:02.639Z,54.10
2019-02-27T16:35:31.932Z,55.20
2019-02-27T16:38:01.191Z,55.70
2019-02-27T16:40:30.459Z,57.00
2019-02-27T16:42:59.770Z,58.10
2019-02-27T16:45:33.849Z,58.50
2019-02-27T16:48:00.633Z,58.20
2019-02-27T16:50:29.908Z,58.20
2019-02-27T16:52:59.197Z,59.30
2019-02-27T16:55:28.457Z,59.10
2019-02-27T16:57:57.967Z,58.70
2019-02-27T17:00:28.715Z,56.90
2019-02-27T17:02:57.992Z,56.60
2019-02-27T17:05:27.441Z,56.00
2019-02-27T17:08:00.393Z,54.70
2019-02-27T17:10:29.609Z,54.40
2019-02-27T17:12:58.953Z,56.20
2019-02-27T17:15:28.239Z,57.40
2019-02-27T17:17:57.493Z,58.30
2019-02-27T17:20:26.730Z,58.20
2019-02-27T17:22:56.030Z,57.00
2019-02-27T17:25:28.966Z,54.70
2019-02-27T17:27:56.413Z,55.30
2019-02-27T17:30:27.741Z,54.90
2019-02-27T17:32:57.064Z,57.00
2019-02-27T17:35:26.285Z,58.60
2019-02-27T17:37:55.609Z,58.90
2019-02-27T17:40:24.844Z,60.30
2019-02-27T17:42:54.469Z,60.70
2019-02-27T17:45:23.778Z,57.90
2019-02-27T17:47:53.153Z,59.00
2019-02-27T17:50:22.529Z,58.50
2019-02-27T17:52:52.043Z,58.30
2019-02-27T17:55:21.351Z,58.00
2019-02-27T17:57:50.635Z,58.90
2019-02-27T18:03:15.158Z,60.40
2019-02-27T18:05:44.503Z,58.60
2019-02-27T18:08:16.285Z,58.40
2019-02-27T18:10:44.941Z,60.40
2019-02-27T18:13:14.315Z,61.00
2019-02-27T18:15:43.693Z,61.60
2019-02-27T18:18:13.028Z,59.10
2019-02-27T18:20:42.453Z,61.70
2019-02-27T18:23:11.811Z,62.90
2019-02-27T18:25:42.220Z,64.10
2019-02-27T18:28:11.847Z,65.20
2019-02-27T18:30:42.670Z,65.90
2019-02-27T18:33:15.513Z,64.90
2019-02-27T18:35:44.559Z,64.00
2019-02-27T18:38:13.860Z,62.50
2019-02-27T18:40:44.120Z,62.90
2019-02-27T18:43:13.561Z,59.90
2019-02-27T18:45:42.974Z,64.30
2019-02-27T18:48:12.646Z,62.90
2019-02-27T18:50:41.942Z,62.30
2019-02-27T18:53:13.342Z,65.00
2019-02-27T18:55:44.151Z,67.00
2019-02-27T18:58:13.830Z,67.30
2019-02-27T19:00:44.012Z,67.30
2019-02-27T19:03:13.606Z,66.80
2019-02-27T19:05:43.363Z,67.60
2019-02-27T19:08:12.935Z,62.80
2019-02-27T19:10:42.830Z,60.80
2019-02-27T19:13:13.099Z,60.30
2019-02-27T19:15:46.412Z,59.90
2019-02-27T19:18:16.539Z,63.00
2019-02-27T19:20:46.329Z,66.60
2019-02-27T19:23:17.713Z,66.00
2019-02-27T19:25:47.375Z,65.70
2019-02-27T19:28:16.894Z,62.90
2019-02-27T19:30:48.570Z,65.40
2019-02-27T19:33:18.132Z,65.10
2019-02-27T19:35:48.992Z,65.10
2019-02-27T19:38:18.519Z,63.40
2019-02-27T19:40:47.819Z,61.40
2019-02-27T19:43:18.190Z,62.70
2019-02-27T19:45:48.645Z,61.50
2019-02-27T19:48:18.235Z,61.90
2019-02-27T19:50:50.860Z,61.00
2019-02-27T19:53:21.067Z,61.20
2019-02-27T19:55:50.885Z,61.30
2019-02-27T19:58:21.012Z,61.80
2019-02-27T20:00:50.445Z,60.70
2019-02-27T20:03:19.903Z,61.50
2019-02-27T20:05:50.637Z,60.80
2019-02-27T20:08:20.358Z,60.50
2019-02-27T20:10:50.131Z,61.10
2019-02-27T20:13:19.653Z,61.20
2019-02-27T20:15:50.053Z,61.50
2019-02-27T20:18:19.614Z,61.60
2019-02-27T20:20:49.100Z,61.40
2019-02-27T20:23:18.477Z,60.30
2019-02-27T20:25:48.104Z,61.20
2019-02-27T20:28:17.490Z,62.70
2019-02-27T20:30:47.146Z,64.10
2019-02-27T20:33:16.633Z,63.50
2019-02-27T20:35:46.115Z,63.50
2019-02-27T20:38:16.937Z,63.40
2019-02-27T20:40:46.379Z,63.90
2019-02-27T20:43:15.732Z,63.70
2019-02-27T20:45:45.039Z,63.60
2019-02-27T20:48:14.367Z,63.70
2019-02-27T20:50:44.289Z,62.40
2019-02-27T20:53:13.720Z,63.30
2019-02-27T20:55:43.167Z,64.30
2019-02-27T20:58:16.118Z,68.50
2019-02-27T21:00:43.583Z,67.30
2019-02-27T21:03:12.964Z,66.80
2019-02-27T21:05:42.287Z,65.60
2019-02-27T21:08:11.626Z,65.60
2019-02-27T21:10:40.954Z,66.40
2019-02-27T21:13:15.649Z,68.40
2019-02-27T21:15:41.453Z,69.10
2019-02-27T21:18:10.910Z,69.80
2019-02-27T21:20:42.197Z,70.50
2019-02-27T21:23:11.300Z,70.20
2019-02-27T21:25:40.666Z,69.70
2019-02-27T21:28:10.075Z,69.80
2019-02-27T21:30:39.438Z,70.20
2019-02-27T21:33:11.211Z,71.50
2019-02-27T21:35:39.867Z,72.50
2019-02-27T21:38:09.232Z,73.30
2019-02-27T21:40:38.540Z,73.50
2019-02-27T21:43:07.835Z,73.40
2019-02-27T21:45:38.289Z,73.90
2019-02-27T21:48:27.795Z,74.00
2019-02-27T21:50:57.303Z,74.20
2019-02-27T21:53:29.585Z,74.10
2019-02-27T21:55:57.680Z,73.80
2019-02-27T21:58:31.859Z,73.30
2019-02-27T22:00:58.038Z,73.00
2019-02-27T22:03:27.483Z,73.20
2019-02-27T22:05:56.878Z,73.10
2019-02-27T22:08:26.167Z,73.40
2019-02-27T22:10:55.449Z,73.90
2019-02-27T22:13:29.189Z,74.20
2019-02-27T22:15:56.610Z,74.30
2019-02-27T22:18:26.404Z,74.50
2019-02-27T22:21:14.967Z,74.40
2019-02-27T22:23:45.012Z,74.80
2019-02-27T22:26:15.525Z,75.00
2019-02-27T22:28:44.940Z,75.20
2019-02-27T22:31:14.230Z,74.60
2019-02-27T22:33:43.583Z,74.50
2019-02-27T22:36:13.582Z,75.00
2019-02-27T22:38:43.039Z,75.10
2019-02-27T22:41:12.414Z,75.50
2019-02-27T22:43:41.767Z,75.90
2019-02-27T22:46:13.679Z,75.80
2019-02-27T22:48:42.149Z,75.70
2019-02-27T22:51:12.695Z,75.20
2019-02-27T22:53:42.887Z,74.60
2019-02-27T22:56:16.038Z,74.60
2019-02-27T22:58:43.240Z,74.50
2019-02-27T23:01:49.329Z,74.00
2019-02-27T23:04:16.372Z,73.80
2019-02-27T23:06:47.080Z,74.20
2019-02-27T23:09:18.056Z,75.00
2019-02-27T23:11:47.516Z,75.40
2019-02-27T23:14:18.898Z,76.00
2019-02-27T23:16:48.567Z,75.60
2019-02-27T23:19:17.852Z,75.60
2019-02-27T23:21:47.482Z,75.50
2019-02-27T23:24:16.772Z,75.60
2019-02-27T23:26:46.071Z,75.60
2019-02-27T23:29:15.478Z,76.10
2019-02-27T23:31:44.707Z,75.80
2019-02-27T23:34:14.009Z,75.90
2019-02-27T23:36:43.254Z,75.80
2019-02-27T23:39:12.575Z,75.70
2019-02-27T23:41:41.889Z,75.50
2019-02-27T23:44:12.175Z,76.20
2019-02-27T23:46:48.728Z,76.20
2019-02-27T23:49:12.704Z,76.00
2019-02-27T23:51:41.956Z,75.40
2019-02-27T23:54:11.269Z,75.20
2019-02-27T23:56:40.537Z,75.20
2019-02-27T23:59:09.837Z,75.10
